sensor_id;sensor_type;location;lat;lon;timestamp;temperature;humidity
22779;DHT22;11556;51.194;3.800;2023-07-13T00:01:51;16.50;99.90
22779;DHT22;11556;51.194;3.800;2023-07-13T00:04:18;16.40;99.90
22779;DHT22;11556;51.194;3.800;2023-07-13T00:06:45;16.30;99.90
22779;DHT22;11556;51.194;3.800;2023-07-13T00:09:15;16.30;99.90
22779;DHT22;11556;51.194;3.800;2023-07-13T00:11:42;16.20;99.90
22779;DHT22;11556;51.194;3.800;2023-07-13T00:14:08;16.30;99.90
22779;DHT22;11556;51.194;3.800;2023-07-13T00:16:39;16.30;99.90
22779;DHT22;11556;51.194;3.800;2023-07-13T00:19:10;16.30;99.90
22779;DHT22;11556;51.194;3.800;2023-07-13T00:21:35;16.40;99.90
22779;DHT22;11556;51.194;3.800;2023-07-13T00:24:01;16.40;99.90
22779;DHT22;11556;51.194;3.800;2023-07-13T00:26:28;16.40;99.90
22779;DHT22;11556;51.194;3.800;2023-07-13T00:28:54;16.30;99.90
22779;DHT22;11556;51.194;3.800;2023-07-13T00:31:20;16.30;99.90
22779;DHT22;11556;51.194;3.800;2023-07-13T00:33:45;16.30;99.90
22779;DHT22;11556;51.194;3.800;2023-07-13T00:36:11;16.40;99.90
22779;DHT22;11556;51.194;3.800;2023-07-13T00:38:37;16.40;99.90
22779;DHT22;11556;51.194;3.800;2023-07-13T00:41:04;16.40;99.90
22779;DHT22;11556;51.194;3.800;2023-07-13T00:43:30;16.30;99.90
22779;DHT22;11556;51.194;3.800;2023-07-13T00:48:25;16.20;99.90
22779;DHT22;11556;51.194;3.800;2023-07-13T00:50:55;16.20;99.90
22779;DHT22;11556;51.194;3.800;2023-07-13T00:53:22;16.20;99.90
22779;DHT22;11556;51.194;3.800;2023-07-13T00:55:50;16.20;99.90
22779;DHT22;11556;51.194;3.800;2023-07-13T00:58:16;16.20;99.90
22779;DHT22;11556;51.194;3.800;2023-07-13T01:00:42;16.10;99.90
22779;DHT22;11556;51.194;3.800;2023-07-13T01:03:08;16.00;99.90
22779;DHT22;11556;51.194;3.800;2023-07-13T01:05:34;16.00;99.90
22779;DHT22;11556;51.194;3.800;2023-07-13T01:08:02;16.00;99.90
22779;DHT22;11556;51.194;3.800;2023-07-13T01:10:28;15.90;99.90
22779;DHT22;11556;51.194;3.800;2023-07-13T01:12:54;15.90;99.90
22779;DHT22;11556;51.194;3.800;2023-07-13T01:15:40;15.90;99.90
22779;DHT22;11556;51.194;3.800;2023-07-13T01:18:08;15.90;99.90
22779;DHT22;11556;51.194;3.800;2023-07-13T01:20:35;15.80;99.90
22779;DHT22;11556;51.194;3.800;2023-07-13T01:23:08;15.80;99.90
22779;DHT22;11556;51.194;3.800;2023-07-13T01:25:36;15.80;99.90
22779;DHT22;11556;51.194;3.800;2023-07-13T01:28:03;15.80;99.90
22779;DHT22;11556;51.194;3.800;2023-07-13T01:30:29;15.70;99.90
22779;DHT22;11556;51.194;3.800;2023-07-13T01:32:56;15.60;99.90
22779;DHT22;11556;51.194;3.800;2023-07-13T01:35:22;15.60;99.90
22779;DHT22;11556;51.194;3.800;2023-07-13T01:37:47;15.60;99.90
22779;DHT22;11556;51.194;3.800;2023-07-13T01:40:13;15.60;99.90
22779;DHT22;11556;51.194;3.800;2023-07-13T01:42:38;15.60;99.90
22779;DHT22;11556;51.194;3.800;2023-07-13T01:45:04;15.50;99.90
22779;DHT22;11556;51.194;3.800;2023-07-13T01:47:30;15.60;99.90
22779;DHT22;11556;51.194;3.800;2023-07-13T01:49:57;15.60;99.90
22779;DHT22;11556;51.194;3.800;2023-07-13T01:52:23;15.60;99.90
22779;DHT22;11556;51.194;3.800;2023-07-13T01:54:49;15.60;99.90
22779;DHT22;11556;51.194;3.800;2023-07-13T01:57:14;15.50;99.90
22779;DHT22;11556;51.194;3.800;2023-07-13T01:59:40;15.50;99.90
22779;DHT22;11556;51.194;3.800;2023-07-13T02:02:06;15.60;99.90
22779;DHT22;11556;51.194;3.800;2023-07-13T02:04:31;15.60;99.90
22779;DHT22;11556;51.194;3.800;2023-07-13T02:06:57;15.50;99.90
22779;DHT22;11556;51.194;3.800;2023-07-13T02:09:22;15.50;99.90
22779;DHT22;11556;51.194;3.800;2023-07-13T02:11:48;15.40;99.90
22779;DHT22;11556;51.194;3.800;2023-07-13T02:14:14;15.50;99.90
22779;DHT22;11556;51.194;3.800;2023-07-13T02:16:41;15.40;99.90
22779;DHT22;11556;51.194;3.800;2023-07-13T02:19:07;15.40;99.90
22779;DHT22;11556;51.194;3.800;2023-07-13T02:21:32;15.50;99.90
22779;DHT22;11556;51.194;3.800;2023-07-13T02:23:58;15.50;99.90
22779;DHT22;11556;51.194;3.800;2023-07-13T02:26:25;15.50;99.90
22779;DHT22;11556;51.194;3.800;2023-07-13T02:28:51;15.50;99.90
22779;DHT22;11556;51.194;3.800;2023-07-13T02:31:16;15.40;99.90
22779;DHT22;11556;51.194;3.800;2023-07-13T02:33:42;15.40;99.90
22779;DHT22;11556;51.194;3.800;2023-07-13T02:36:09;15.30;99.90
22779;DHT22;11556;51.194;3.800;2023-07-13T02:38:35;15.40;99.90
22779;DHT22;11556;51.194;3.800;2023-07-13T02:41:03;15.30;99.90
22779;DHT22;11556;51.194;3.800;2023-07-13T02:43:29;15.30;99.90
22779;DHT22;11556;51.194;3.800;2023-07-13T02:45:55;15.30;99.90
22779;DHT22;11556;51.194;3.800;2023-07-13T02:48:20;15.30;99.90
22779;DHT22;11556;51.194;3.800;2023-07-13T02:50:46;15.30;99.90
22779;DHT22;11556;51.194;3.800;2023-07-13T02:53:12;15.30;99.90
22779;DHT22;11556;51.194;3.800;2023-07-13T02:55:37;15.30;99.90
22779;DHT22;11556;51.194;3.800;2023-07-13T02:58:05;15.30;99.90
22779;DHT22;11556;51.194;3.800;2023-07-13T03:00:31;15.30;99.90
22779;DHT22;11556;51.194;3.800;2023-07-13T03:02:56;15.30;99.90
22779;DHT22;11556;51.194;3.800;2023-07-13T03:05:23;15.20;99.90
22779;DHT22;11556;51.194;3.800;2023-07-13T03:07:49;15.20;99.90
22779;DHT22;11556;51.194;3.800;2023-07-13T03:10:15;15.20;99.90
22779;DHT22;11556;51.194;3.800;2023-07-13T03:12:42;15.20;99.90
22779;DHT22;11556;51.194;3.800;2023-07-13T03:15:08;15.20;99.90
22779;DHT22;11556;51.194;3.800;2023-07-13T03:17:33;15.20;99.90
22779;DHT22;11556;51.194;3.800;2023-07-13T03:19:59;15.20;99.90
22779;DHT22;11556;51.194;3.800;2023-07-13T03:22:24;15.10;99.90
22779;DHT22;11556;51.194;3.800;2023-07-13T03:24:50;15.10;99.90
22779;DHT22;11556;51.194;3.800;2023-07-13T03:27:17;15.10;99.90
22779;DHT22;11556;51.194;3.800;2023-07-13T03:29:43;15.10;99.90
22779;DHT22;11556;51.194;3.800;2023-07-13T03:32:09;15.00;99.90
22779;DHT22;11556;51.194;3.800;2023-07-13T03:34:34;15.10;99.90
22779;DHT22;11556;51.194;3.800;2023-07-13T03:37:00;15.10;99.90
22779;DHT22;11556;51.194;3.800;2023-07-13T03:39:26;15.10;99.90
22779;DHT22;11556;51.194;3.800;2023-07-13T03:41:52;15.10;99.90
22779;DHT22;11556;51.194;3.800;2023-07-13T03:44:18;15.10;99.90
22779;DHT22;11556;51.194;3.800;2023-07-13T03:46:44;15.10;99.90
22779;DHT22;11556;51.194;3.800;2023-07-13T03:49:10;15.10;99.90
22779;DHT22;11556;51.194;3.800;2023-07-13T03:51:36;15.10;99.90
22779;DHT22;11556;51.194;3.800;2023-07-13T03:54:02;15.10;99.90
22779;DHT22;11556;51.194;3.800;2023-07-13T03:56:28;15.10;99.90
22779;DHT22;11556;51.194;3.800;2023-07-13T03:58:54;15.20;99.90
22779;DHT22;11556;51.194;3.800;2023-07-13T04:01:21;15.20;99.90
22779;DHT22;11556;51.194;3.800;2023-07-13T04:03:47;15.10;99.90
22779;DHT22;11556;51.194;3.800;2023-07-13T04:06:25;15.20;99.90
22779;DHT22;11556;51.194;3.800;2023-07-13T04:08:56;15.20;99.90
22779;DHT22;11556;51.194;3.800;2023-07-13T04:11:24;15.20;99.90
22779;DHT22;11556;51.194;3.800;2023-07-13T04:13:51;15.30;99.90
22779;DHT22;11556;51.194;3.800;2023-07-13T04:16:17;15.40;99.90
22779;DHT22;11556;51.194;3.800;2023-07-13T04:18:44;15.40;99.90
22779;DHT22;11556;51.194;3.800;2023-07-13T04:21:11;15.50;99.90
22779;DHT22;11556;51.194;3.800;2023-07-13T04:23:37;15.60;99.90
22779;DHT22;11556;51.194;3.800;2023-07-13T04:26:03;15.70;99.90
22779;DHT22;11556;51.194;3.800;2023-07-13T04:28:29;15.80;99.90
22779;DHT22;11556;51.194;3.800;2023-07-13T04:30:56;15.90;99.90
22779;DHT22;11556;51.194;3.800;2023-07-13T04:33:21;16.00;99.90
22779;DHT22;11556;51.194;3.800;2023-07-13T04:35:51;16.00;99.90
22779;DHT22;11556;51.194;3.800;2023-07-13T04:38:23;15.90;99.90
22779;DHT22;11556;51.194;3.800;2023-07-13T04:40:50;15.90;99.90
22779;DHT22;11556;51.194;3.800;2023-07-13T04:43:16;16.00;99.90
22779;DHT22;11556;51.194;3.800;2023-07-13T04:45:42;16.10;99.90
22779;DHT22;11556;51.194;3.800;2023-07-13T04:48:07;16.00;99.90
22779;DHT22;11556;51.194;3.800;2023-07-13T04:50:36;16.00;99.90
22779;DHT22;11556;51.194;3.800;2023-07-13T04:53:02;16.10;99.90
22779;DHT22;11556;51.194;3.800;2023-07-13T04:55:29;16.20;99.90
22779;DHT22;11556;51.194;3.800;2023-07-13T04:57:56;16.20;99.90
22779;DHT22;11556;51.194;3.800;2023-07-13T05:00:24;16.40;99.90
22779;DHT22;11556;51.194;3.800;2023-07-13T05:02:50;16.50;99.90
22779;DHT22;11556;51.194;3.800;2023-07-13T05:05:15;16.50;99.90
22779;DHT22;11556;51.194;3.800;2023-07-13T05:07:41;16.60;99.90
22779;DHT22;11556;51.194;3.800;2023-07-13T05:10:07;16.70;99.90
22779;DHT22;11556;51.194;3.800;2023-07-13T05:12:33;16.80;99.90
22779;DHT22;11556;51.194;3.800;2023-07-13T05:14:59;17.00;99.90
22779;DHT22;11556;51.194;3.800;2023-07-13T05:17:24;17.00;99.90
22779;DHT22;11556;51.194;3.800;2023-07-13T05:19:50;17.00;99.90
22779;DHT22;11556;51.194;3.800;2023-07-13T05:22:16;17.20;99.90
22779;DHT22;11556;51.194;3.800;2023-07-13T05:24:41;17.30;99.90
22779;DHT22;11556;51.194;3.800;2023-07-13T05:27:07;17.50;99.90
22779;DHT22;11556;51.194;3.800;2023-07-13T05:29:32;17.60;99.90
22779;DHT22;11556;51.194;3.800;2023-07-13T05:31:58;17.60;99.90
22779;DHT22;11556;51.194;3.800;2023-07-13T05:34:24;17.70;99.90
22779;DHT22;11556;51.194;3.800;2023-07-13T05:36:49;17.80;99.90
22779;DHT22;11556;51.194;3.800;2023-07-13T05:39:16;17.90;99.90
22779;DHT22;11556;51.194;3.800;2023-07-13T05:41:41;17.80;99.90
22779;DHT22;11556;51.194;3.800;2023-07-13T05:44:07;17.80;99.90
22779;DHT22;11556;51.194;3.800;2023-07-13T05:46:32;17.90;99.90
22779;DHT22;11556;51.194;3.800;2023-07-13T05:48:58;17.80;99.90
22779;DHT22;11556;51.194;3.800;2023-07-13T05:51:24;18.10;99.90
22779;DHT22;11556;51.194;3.800;2023-07-13T05:53:50;18.10;99.90
22779;DHT22;11556;51.194;3.800;2023-07-13T05:56:16;18.30;99.90
22779;DHT22;11556;51.194;3.800;2023-07-13T05:58:41;18.30;99.90
22779;DHT22;11556;51.194;3.800;2023-07-13T06:01:11;18.40;99.90
22779;DHT22;11556;51.194;3.800;2023-07-13T06:03:37;18.60;99.90
22779;DHT22;11556;51.194;3.800;2023-07-13T06:06:07;18.60;99.90
22779;DHT22;11556;51.194;3.800;2023-07-13T06:08:33;18.70;99.90
22779;DHT22;11556;51.194;3.800;2023-07-13T06:11:20;18.90;99.90
22779;DHT22;11556;51.194;3.800;2023-07-13T06:13:46;19.10;99.90
22779;DHT22;11556;51.194;3.800;2023-07-13T06:16:12;19.60;99.90
22779;DHT22;11556;51.194;3.800;2023-07-13T06:18:39;20.00;99.90
22779;DHT22;11556;51.194;3.800;2023-07-13T06:21:10;20.10;99.90
22779;DHT22;11556;51.194;3.800;2023-07-13T06:23:37;19.90;99.90
22779;DHT22;11556;51.194;3.800;2023-07-13T06:26:03;20.10;99.90
22779;DHT22;11556;51.194;3.800;2023-07-13T06:28:29;20.20;99.90
22779;DHT22;11556;51.194;3.800;2023-07-13T06:30:57;20.60;99.90
22779;DHT22;11556;51.194;3.800;2023-07-13T06:33:24;21.40;99.90
22779;DHT22;11556;51.194;3.800;2023-07-13T06:35:49;22.20;99.90
22779;DHT22;11556;51.194;3.800;2023-07-13T06:38:15;23.10;99.90
22779;DHT22;11556;51.194;3.800;2023-07-13T06:40:41;23.30;99.90
22779;DHT22;11556;51.194;3.800;2023-07-13T06:43:06;23.30;99.90
22779;DHT22;11556;51.194;3.800;2023-07-13T06:45:39;23.50;99.90
22779;DHT22;11556;51.194;3.800;2023-07-13T06:48:05;25.00;99.90
22779;DHT22;11556;51.194;3.800;2023-07-13T06:50:31;25.20;99.90
22779;DHT22;11556;51.194;3.800;2023-07-13T06:52:57;25.30;99.90
22779;DHT22;11556;51.194;3.800;2023-07-13T06:55:25;25.20;99.90
22779;DHT22;11556;51.194;3.800;2023-07-13T06:57:50;25.50;99.90
22779;DHT22;11556;51.194;3.800;2023-07-13T07:00:16;27.00;99.90
22779;DHT22;11556;51.194;3.800;2023-07-13T07:02:42;27.70;99.90
22779;DHT22;11556;51.194;3.800;2023-07-13T07:05:07;28.10;98.50
22779;DHT22;11556;51.194;3.800;2023-07-13T07:07:33;28.10;98.10
22779;DHT22;11556;51.194;3.800;2023-07-13T07:09:58;27.90;97.50
22779;DHT22;11556;51.194;3.800;2023-07-13T07:12:24;27.80;97.00
22779;DHT22;11556;51.194;3.800;2023-07-13T07:14:50;28.40;95.20
22779;DHT22;11556;51.194;3.800;2023-07-13T07:17:15;29.10;93.40
22779;DHT22;11556;51.194;3.800;2023-07-13T07:19:41;29.90;89.20
22779;DHT22;11556;51.194;3.800;2023-07-13T07:22:07;30.70;85.40
22779;DHT22;11556;51.194;3.800;2023-07-13T07:24:32;31.10;83.90
22779;DHT22;11556;51.194;3.800;2023-07-13T07:26:58;31.40;80.40
22779;DHT22;11556;51.194;3.800;2023-07-13T07:29:24;31.40;77.20
22779;DHT22;11556;51.194;3.800;2023-07-13T07:31:52;31.40;74.60
22779;DHT22;11556;51.194;3.800;2023-07-13T07:34:17;31.40;72.70
22779;DHT22;11556;51.194;3.800;2023-07-13T07:36:43;30.30;72.20
22779;DHT22;11556;51.194;3.800;2023-07-13T07:39:09;29.40;76.30
22779;DHT22;11556;51.194;3.800;2023-07-13T07:41:34;29.40;76.50
22779;DHT22;11556;51.194;3.800;2023-07-13T07:44:00;29.00;78.40
22779;DHT22;11556;51.194;3.800;2023-07-13T07:46:25;28.50;80.10
22779;DHT22;11556;51.194;3.800;2023-07-13T07:48:51;28.30;82.10
22779;DHT22;11556;51.194;3.800;2023-07-13T07:51:16;28.20;80.30
22779;DHT22;11556;51.194;3.800;2023-07-13T07:53:42;28.00;82.10
22779;DHT22;11556;51.194;3.800;2023-07-13T07:56:08;28.30;82.90
22779;DHT22;11556;51.194;3.800;2023-07-13T07:58:35;28.00;80.80
22779;DHT22;11556;51.194;3.800;2023-07-13T08:01:07;27.80;83.10
22779;DHT22;11556;51.194;3.800;2023-07-13T08:03:32;28.00;81.80
22779;DHT22;11556;51.194;3.800;2023-07-13T08:05:58;28.60;79.70
22779;DHT22;11556;51.194;3.800;2023-07-13T08:08:24;28.90;79.20
22779;DHT22;11556;51.194;3.800;2023-07-13T08:10:50;30.10;73.60
22779;DHT22;11556;51.194;3.800;2023-07-13T08:13:15;30.50;71.60
22779;DHT22;11556;51.194;3.800;2023-07-13T08:15:41;30.70;72.50
22779;DHT22;11556;51.194;3.800;2023-07-13T08:18:08;31.40;66.40
22779;DHT22;11556;51.194;3.800;2023-07-13T08:20:40;31.20;65.80
22779;DHT22;11556;51.194;3.800;2023-07-13T08:23:06;30.60;66.90
22779;DHT22;11556;51.194;3.800;2023-07-13T08:25:32;31.00;66.90
22779;DHT22;11556;51.194;3.800;2023-07-13T08:27:57;32.20;63.60
22779;DHT22;11556;51.194;3.800;2023-07-13T08:30:23;33.30;59.90
22779;DHT22;11556;51.194;3.800;2023-07-13T08:32:49;34.00;56.40
22779;DHT22;11556;51.194;3.800;2023-07-13T08:35:15;33.80;55.70
22779;DHT22;11556;51.194;3.800;2023-07-13T08:37:41;34.20;53.40
22779;DHT22;11556;51.194;3.800;2023-07-13T08:40:10;34.50;53.20
22779;DHT22;11556;51.194;3.800;2023-07-13T08:42:49;35.10;51.20
22779;DHT22;11556;51.194;3.800;2023-07-13T08:45:33;34.90;51.20
22779;DHT22;11556;51.194;3.800;2023-07-13T08:48:07;34.90;50.80
22779;DHT22;11556;51.194;3.800;2023-07-13T08:51:22;33.70;52.30
22779;DHT22;11556;51.194;3.800;2023-07-13T08:53:35;32.20;54.50
22779;DHT22;11556;51.194;3.800;2023-07-13T08:56:02;30.20;57.60
22779;DHT22;11556;51.194;3.800;2023-07-13T08:58:30;30.60;57.20
22779;DHT22;11556;51.194;3.800;2023-07-13T09:01:17;31.20;56.00
22779;DHT22;11556;51.194;3.800;2023-07-13T09:04:02;32.00;54.30
22779;DHT22;11556;51.194;3.800;2023-07-13T09:09:38;32.10;55.20
22779;DHT22;11556;51.194;3.800;2023-07-13T09:14:55;32.80;52.10
22779;DHT22;11556;51.194;3.800;2023-07-13T09:17:27;31.20;55.00
22779;DHT22;11556;51.194;3.800;2023-07-13T09:20:00;29.70;58.30
22779;DHT22;11556;51.194;3.800;2023-07-13T09:22:32;28.70;61.10
22779;DHT22;11556;51.194;3.800;2023-07-13T09:25:13;28.20;63.10
22779;DHT22;11556;51.194;3.800;2023-07-13T09:27:46;27.80;64.90
22779;DHT22;11556;51.194;3.800;2023-07-13T09:30:24;28.70;63.90
22779;DHT22;11556;51.194;3.800;2023-07-13T09:32:53;30.20;61.20
22779;DHT22;11556;51.194;3.800;2023-07-13T09:35:25;30.90;57.50
22779;DHT22;11556;51.194;3.800;2023-07-13T09:38:19;30.40;57.60
22779;DHT22;11556;51.194;3.800;2023-07-13T09:40:56;29.90;58.40
22779;DHT22;11556;51.194;3.800;2023-07-13T09:43:24;29.60;59.30
22779;DHT22;11556;51.194;3.800;2023-07-13T09:45:50;29.60;60.10
22779;DHT22;11556;51.194;3.800;2023-07-13T09:48:17;30.20;59.60
22779;DHT22;11556;51.194;3.800;2023-07-13T09:50:43;30.80;56.00
22779;DHT22;11556;51.194;3.800;2023-07-13T09:53:17;30.90;57.00
22779;DHT22;11556;51.194;3.800;2023-07-13T09:55:45;30.60;57.60
22779;DHT22;11556;51.194;3.800;2023-07-13T09:58:14;30.00;57.90
22779;DHT22;11556;51.194;3.800;2023-07-13T10:00:42;29.40;60.80
22779;DHT22;11556;51.194;3.800;2023-07-13T10:03:16;29.60;58.60
22779;DHT22;11556;51.194;3.800;2023-07-13T10:05:45;29.30;59.60
22779;DHT22;11556;51.194;3.800;2023-07-13T10:08:28;28.70;60.10
22779;DHT22;11556;51.194;3.800;2023-07-13T10:11:01;28.60;61.00
22779;DHT22;11556;51.194;3.800;2023-07-13T10:13:44;28.40;60.00
22779;DHT22;11556;51.194;3.800;2023-07-13T10:16:11;28.10;61.00
22779;DHT22;11556;51.194;3.800;2023-07-13T10:18:49;27.80;68.40
22779;DHT22;11556;51.194;3.800;2023-07-13T10:21:22;27.20;80.40
22779;DHT22;11556;51.194;3.800;2023-07-13T10:23:51;26.50;90.80
22779;DHT22;11556;51.194;3.800;2023-07-13T10:26:26;25.70;95.90
22779;DHT22;11556;51.194;3.800;2023-07-13T10:28:55;25.00;99.90
22779;DHT22;11556;51.194;3.800;2023-07-13T10:31:21;24.40;99.90
22779;DHT22;11556;51.194;3.800;2023-07-13T10:33:48;23.90;99.90
22779;DHT22;11556;51.194;3.800;2023-07-13T10:36:34;23.60;99.90
22779;DHT22;11556;51.194;3.800;2023-07-13T10:39:04;23.40;99.90
22779;DHT22;11556;51.194;3.800;2023-07-13T10:41:32;23.40;99.90
22779;DHT22;11556;51.194;3.800;2023-07-13T10:43:59;23.40;99.90
22779;DHT22;11556;51.194;3.800;2023-07-13T10:46:27;23.60;99.90
22779;DHT22;11556;51.194;3.800;2023-07-13T10:49:02;23.70;99.90
22779;DHT22;11556;51.194;3.800;2023-07-13T10:51:30;23.70;99.90
22779;DHT22;11556;51.194;3.800;2023-07-13T10:56:45;23.60;99.90
22779;DHT22;11556;51.194;3.800;2023-07-13T10:59:25;23.40;99.90
22779;DHT22;11556;51.194;3.800;2023-07-13T11:01:58;23.00;99.90
22779;DHT22;11556;51.194;3.800;2023-07-13T11:04:27;22.50;99.90
22779;DHT22;11556;51.194;3.800;2023-07-13T11:06:59;22.10;99.90
22779;DHT22;11556;51.194;3.800;2023-07-13T11:09:41;21.80;99.90
22779;DHT22;11556;51.194;3.800;2023-07-13T11:15:13;21.60;99.90
22779;DHT22;11556;51.194;3.800;2023-07-13T11:22:52;22.00;99.90
22779;DHT22;11556;51.194;3.800;2023-07-13T11:35:51;23.50;99.90
22779;DHT22;11556;51.194;3.800;2023-07-13T11:38:22;24.20;99.90
22779;DHT22;11556;51.194;3.800;2023-07-13T11:40:53;24.60;99.90
22779;DHT22;11556;51.194;3.800;2023-07-13T11:43:19;25.10;99.90
22779;DHT22;11556;51.194;3.800;2023-07-13T11:45:44;26.30;99.90
22779;DHT22;11556;51.194;3.800;2023-07-13T11:48:24;27.00;99.90
22779;DHT22;11556;51.194;3.800;2023-07-13T11:51:04;27.90;99.90
22779;DHT22;11556;51.194;3.800;2023-07-13T11:53:43;28.60;99.90
22779;DHT22;11556;51.194;3.800;2023-07-13T11:56:10;29.40;98.40
22779;DHT22;11556;51.194;3.800;2023-07-13T11:58:36;29.50;98.30
22779;DHT22;11556;51.194;3.800;2023-07-13T12:01:02;29.70;93.50
22779;DHT22;11556;51.194;3.800;2023-07-13T12:03:30;29.80;93.30
22779;DHT22;11556;51.194;3.800;2023-07-13T12:06:03;30.30;93.60
22779;DHT22;11556;51.194;3.800;2023-07-13T12:08:31;30.70;90.00
22779;DHT22;11556;51.194;3.800;2023-07-13T12:11:03;30.50;90.00
22779;DHT22;11556;51.194;3.800;2023-07-13T12:13:37;30.10;87.80
22779;DHT22;11556;51.194;3.800;2023-07-13T12:16:12;29.40;86.80
22779;DHT22;11556;51.194;3.800;2023-07-13T12:18:39;28.80;90.20
22779;DHT22;11556;51.194;3.800;2023-07-13T12:21:12;28.20;91.50
22779;DHT22;11556;51.194;3.800;2023-07-13T12:23:39;28.00;92.50
22779;DHT22;11556;51.194;3.800;2023-07-13T12:26:06;28.00;92.00
22779;DHT22;11556;51.194;3.800;2023-07-13T12:28:43;27.90;92.60
22779;DHT22;11556;51.194;3.800;2023-07-13T12:36:36;30.00;91.10
22779;DHT22;11556;51.194;3.800;2023-07-13T12:39:18;30.40;82.60
22779;DHT22;11556;51.194;3.800;2023-07-13T12:41:46;30.00;84.70
22779;DHT22;11556;51.194;3.800;2023-07-13T12:44:15;29.40;81.30
22779;DHT22;11556;51.194;3.800;2023-07-13T12:46:58;28.60;83.80
22779;DHT22;11556;51.194;3.800;2023-07-13T12:49:28;28.00;85.70
22779;DHT22;11556;51.194;3.800;2023-07-13T12:52:00;27.90;84.70
22779;DHT22;11556;51.194;3.800;2023-07-13T12:54:26;27.70;87.60
22779;DHT22;11556;51.194;3.800;2023-07-13T12:56:54;27.50;87.50
22779;DHT22;11556;51.194;3.800;2023-07-13T12:59:22;27.30;87.30
22779;DHT22;11556;51.194;3.800;2023-07-13T13:01:49;26.80;90.00
22779;DHT22;11556;51.194;3.800;2023-07-13T13:04:16;26.20;91.30
22779;DHT22;11556;51.194;3.800;2023-07-13T13:06:42;26.30;92.70
22779;DHT22;11556;51.194;3.800;2023-07-13T13:09:14;27.10;92.70
22779;DHT22;11556;51.194;3.800;2023-07-13T13:11:40;28.30;94.10
22779;DHT22;11556;51.194;3.800;2023-07-13T13:14:06;29.90;89.20
22779;DHT22;11556;51.194;3.800;2023-07-13T13:16:35;30.60;78.60
22779;DHT22;11556;51.194;3.800;2023-07-13T13:19:18;31.10;76.70
22779;DHT22;11556;51.194;3.800;2023-07-13T13:21:46;30.90;75.90
22779;DHT22;11556;51.194;3.800;2023-07-13T13:24:17;31.00;80.40
22779;DHT22;11556;51.194;3.800;2023-07-13T13:26:45;31.70;77.40
22779;DHT22;11556;51.194;3.800;2023-07-13T13:29:17;32.40;73.90
22779;DHT22;11556;51.194;3.800;2023-07-13T13:31:43;32.60;69.90
22779;DHT22;11556;51.194;3.800;2023-07-13T13:34:12;32.30;68.50
22779;DHT22;11556;51.194;3.800;2023-07-13T13:36:40;31.50;68.80
22779;DHT22;11556;51.194;3.800;2023-07-13T13:39:35;30.90;70.70
22779;DHT22;11556;51.194;3.800;2023-07-13T13:42:02;30.50;70.90
22779;DHT22;11556;51.194;3.800;2023-07-13T13:44:28;30.20;73.30
22779;DHT22;11556;51.194;3.800;2023-07-13T13:46:55;30.50;72.80
22779;DHT22;11556;51.194;3.800;2023-07-13T13:49:26;30.70;71.00
22779;DHT22;11556;51.194;3.800;2023-07-13T13:51:52;30.40;70.70
22779;DHT22;11556;51.194;3.800;2023-07-13T13:54:20;30.60;68.40
22779;DHT22;11556;51.194;3.800;2023-07-13T13:56:47;29.60;69.60
22779;DHT22;11556;51.194;3.800;2023-07-13T13:59:13;29.10;72.50
22779;DHT22;11556;51.194;3.800;2023-07-13T14:01:40;28.80;74.00
22779;DHT22;11556;51.194;3.800;2023-07-13T14:04:13;28.30;77.10
22779;DHT22;11556;51.194;3.800;2023-07-13T14:06:39;28.10;75.50
22779;DHT22;11556;51.194;3.800;2023-07-13T14:09:10;27.90;77.10
22779;DHT22;11556;51.194;3.800;2023-07-13T14:11:36;27.80;77.90
22779;DHT22;11556;51.194;3.800;2023-07-13T14:14:02;27.60;78.70
22779;DHT22;11556;51.194;3.800;2023-07-13T14:16:31;27.60;80.40
22779;DHT22;11556;51.194;3.800;2023-07-13T14:18:59;27.90;77.10
22779;DHT22;11556;51.194;3.800;2023-07-13T14:21:28;28.30;80.10
22779;DHT22;11556;51.194;3.800;2023-07-13T14:23:53;28.70;77.20
22779;DHT22;11556;51.194;3.800;2023-07-13T14:26:22;28.80;76.10
22779;DHT22;11556;51.194;3.800;2023-07-13T14:28:58;28.90;77.80
22779;DHT22;11556;51.194;3.800;2023-07-13T14:31:26;28.90;74.50
22779;DHT22;11556;51.194;3.800;2023-07-13T14:33:54;28.90;73.10
22779;DHT22;11556;51.194;3.800;2023-07-13T14:36:32;28.60;72.40
22779;DHT22;11556;51.194;3.800;2023-07-13T14:38:59;28.60;76.60
22779;DHT22;11556;51.194;3.800;2023-07-13T14:41:26;28.80;73.20
22779;DHT22;11556;51.194;3.800;2023-07-13T14:43:52;29.10;70.20
22779;DHT22;11556;51.194;3.800;2023-07-13T14:46:32;29.00;68.80
22779;DHT22;11556;51.194;3.800;2023-07-13T14:49:07;28.90;68.30
22779;DHT22;11556;51.194;3.800;2023-07-13T14:51:35;28.90;67.00
22779;DHT22;11556;51.194;3.800;2023-07-13T14:54:04;28.80;67.40
22779;DHT22;11556;51.194;3.800;2023-07-13T14:56:30;28.60;68.70
22779;DHT22;11556;51.194;3.800;2023-07-13T14:58:56;28.50;72.20
22779;DHT22;11556;51.194;3.800;2023-07-13T15:01:22;28.60;71.40
22779;DHT22;11556;51.194;3.800;2023-07-13T15:03:50;28.70;69.50
22779;DHT22;11556;51.194;3.800;2023-07-13T15:06:17;28.40;71.00
22779;DHT22;11556;51.194;3.800;2023-07-13T15:08:45;28.20;71.70
22779;DHT22;11556;51.194;3.800;2023-07-13T15:11:10;28.30;72.60
22779;DHT22;11556;51.194;3.800;2023-07-13T15:13:40;28.40;69.60
22779;DHT22;11556;51.194;3.800;2023-07-13T15:16:23;28.50;70.90
22779;DHT22;11556;51.194;3.800;2023-07-13T15:18:50;28.40;69.30
22779;DHT22;11556;51.194;3.800;2023-07-13T15:21:22;28.30;69.40
22779;DHT22;11556;51.194;3.800;2023-07-13T15:23:49;28.00;69.00
22779;DHT22;11556;51.194;3.800;2023-07-13T15:26:17;28.10;71.80
22779;DHT22;11556;51.194;3.800;2023-07-13T15:28:43;28.10;70.30
22779;DHT22;11556;51.194;3.800;2023-07-13T15:31:24;28.10;70.00
22779;DHT22;11556;51.194;3.800;2023-07-13T15:33:54;27.90;69.90
22779;DHT22;11556;51.194;3.800;2023-07-13T15:36:22;27.70;71.50
22779;DHT22;11556;51.194;3.800;2023-07-13T15:38:48;27.60;71.30
22779;DHT22;11556;51.194;3.800;2023-07-13T15:41:22;27.60;73.10
22779;DHT22;11556;51.194;3.800;2023-07-13T15:43:54;27.70;71.80
22779;DHT22;11556;51.194;3.800;2023-07-13T15:46:21;27.90;71.30
22779;DHT22;11556;51.194;3.800;2023-07-13T15:48:48;28.20;71.70
22779;DHT22;11556;51.194;3.800;2023-07-13T15:51:27;28.40;69.90
22779;DHT22;11556;51.194;3.800;2023-07-13T15:53:55;28.50;69.00
22779;DHT22;11556;51.194;3.800;2023-07-13T15:56:26;28.40;69.10
22779;DHT22;11556;51.194;3.800;2023-07-13T15:58:53;28.30;71.30
22779;DHT22;11556;51.194;3.800;2023-07-13T16:01:19;28.40;69.50
22779;DHT22;11556;51.194;3.800;2023-07-13T16:03:46;28.40;69.40
22779;DHT22;11556;51.194;3.800;2023-07-13T16:06:24;28.40;70.50
22779;DHT22;11556;51.194;3.800;2023-07-13T16:08:51;28.40;68.70
22779;DHT22;11556;51.194;3.800;2023-07-13T16:11:19;28.40;67.90
22779;DHT22;11556;51.194;3.800;2023-07-13T16:13:46;28.20;68.10